sensor_id;sensor_type;location;lat;lon;timestamp;P1;durP1;ratioP1;P2;durP2;ratioP2
19907;SDS011;10116;53.112;7.356;2023-10-09T00:02:10;1.27;;;1.27;;
19907;SDS011;10116;53.112;7.356;2023-10-09T00:04:43;1.20;;;1.20;;
19907;SDS011;10116;53.112;7.356;2023-10-09T00:07:10;0.93;;;0.93;;
19907;SDS011;10116;53.112;7.356;2023-10-09T00:09:36;1.50;;;1.00;;
19907;SDS011;10116;53.112;7.356;2023-10-09T00:12:13;0.80;;;0.80;;
19907;SDS011;10116;53.112;7.356;2023-10-09T00:14:47;1.27;;;1.10;;
19907;SDS011;10116;53.112;7.356;2023-10-09T00:17:18;1.20;;;1.10;;
19907;SDS011;10116;53.112;7.356;2023-10-09T00:19:45;1.03;;;1.00;;
19907;SDS011;10116;53.112;7.356;2023-10-09T00:22:14;0.93;;;0.93;;
19907;SDS011;10116;53.112;7.356;2023-10-09T00:24:49;1.10;;;1.10;;
19907;SDS011;10116;53.112;7.356;2023-10-09T00:27:16;0.80;;;0.80;;
19907;SDS011;10116;53.112;7.356;2023-10-09T00:29:46;1.03;;;1.03;;
19907;SDS011;10116;53.112;7.356;2023-10-09T00:32:13;0.97;;;0.93;;
19907;SDS011;10116;53.112;7.356;2023-10-09T00:34:57;1.10;;;1.07;;
19907;SDS011;10116;53.112;7.356;2023-10-09T00:37:24;1.10;;;1.10;;
19907;SDS011;10116;53.112;7.356;2023-10-09T00:39:59;1.13;;;1.03;;
19907;SDS011;10116;53.112;7.356;2023-10-09T00:42:24;0.90;;;0.83;;
19907;SDS011;10116;53.112;7.356;2023-10-09T00:44:59;1.03;;;1.00;;
19907;SDS011;10116;53.112;7.356;2023-10-09T00:47:30;1.33;;;0.90;;
19907;SDS011;10116;53.112;7.356;2023-10-09T00:50:03;1.00;;;1.00;;
19907;SDS011;10116;53.112;7.356;2023-10-09T00:52:45;0.93;;;0.90;;
19907;SDS011;10116;53.112;7.356;2023-10-09T00:55:19;0.93;;;0.93;;
19907;SDS011;10116;53.112;7.356;2023-10-09T00:58:24;1.30;;;1.20;;
19907;SDS011;10116;53.112;7.356;2023-10-09T01:00:56;1.03;;;1.03;;
19907;SDS011;10116;53.112;7.356;2023-10-09T01:03:24;2.30;;;1.30;;
19907;SDS011;10116;53.112;7.356;2023-10-09T01:05:51;2.00;;;1.60;;
19907;SDS011;10116;53.112;7.356;2023-10-09T01:08:41;1.07;;;0.97;;
19907;SDS011;10116;53.112;7.356;2023-10-09T01:11:13;1.13;;;1.03;;
19907;SDS011;10116;53.112;7.356;2023-10-09T01:13:48;0.97;;;0.97;;
19907;SDS011;10116;53.112;7.356;2023-10-09T01:16:15;2.43;;;0.90;;
19907;SDS011;10116;53.112;7.356;2023-10-09T01:18:46;1.00;;;1.00;;
19907;SDS011;10116;53.112;7.356;2023-10-09T01:21:16;0.90;;;0.90;;
19907;SDS011;10116;53.112;7.356;2023-10-09T01:23:46;1.17;;;1.07;;
19907;SDS011;10116;53.112;7.356;2023-10-09T01:26:27;0.70;;;0.67;;
19907;SDS011;10116;53.112;7.356;2023-10-09T01:28:58;1.07;;;1.07;;
19907;SDS011;10116;53.112;7.356;2023-10-09T01:31:26;1.10;;;1.00;;
19907;SDS011;10116;53.112;7.356;2023-10-09T01:33:52;2.27;;;1.20;;
19907;SDS011;10116;53.112;7.356;2023-10-09T01:36:25;1.10;;;1.10;;
19907;SDS011;10116;53.112;7.356;2023-10-09T01:39:00;0.97;;;0.97;;
19907;SDS011;10116;53.112;7.356;2023-10-09T01:41:47;1.03;;;1.00;;
19907;SDS011;10116;53.112;7.356;2023-10-09T01:44:14;1.10;;;1.10;;
19907;SDS011;10116;53.112;7.356;2023-10-09T01:46:41;1.00;;;1.00;;
19907;SDS011;10116;53.112;7.356;2023-10-09T01:49:11;1.27;;;1.17;;
19907;SDS011;10116;53.112;7.356;2023-10-09T01:51:43;1.40;;;1.30;;
19907;SDS011;10116;53.112;7.356;2023-10-09T01:54:08;1.00;;;1.00;;
19907;SDS011;10116;53.112;7.356;2023-10-09T01:56:41;1.13;;;1.03;;
19907;SDS011;10116;53.112;7.356;2023-10-09T01:59:11;2.07;;;1.40;;
19907;SDS011;10116;53.112;7.356;2023-10-09T02:01:36;1.00;;;1.00;;
19907;SDS011;10116;53.112;7.356;2023-10-09T02:04:06;1.40;;;1.30;;
19907;SDS011;10116;53.112;7.356;2023-10-09T02:06:38;1.00;;;0.97;;
19907;SDS011;10116;53.112;7.356;2023-10-09T02:09:05;1.53;;;1.00;;
19907;SDS011;10116;53.112;7.356;2023-10-09T02:11:32;0.93;;;0.93;;
19907;SDS011;10116;53.112;7.356;2023-10-09T02:14:06;1.17;;;1.07;;
19907;SDS011;10116;53.112;7.356;2023-10-09T02:16:44;1.10;;;1.10;;
19907;SDS011;10116;53.112;7.356;2023-10-09T02:19:32;1.00;;;1.00;;
19907;SDS011;10116;53.112;7.356;2023-10-09T02:22:05;1.00;;;1.00;;
19907;SDS011;10116;53.112;7.356;2023-10-09T02:24:38;1.40;;;1.30;;
19907;SDS011;10116;53.112;7.356;2023-10-09T02:27:13;1.37;;;1.27;;
19907;SDS011;10116;53.112;7.356;2023-10-09T02:29:58;0.97;;;0.97;;
19907;SDS011;10116;53.112;7.356;2023-10-09T02:32:24;1.27;;;1.27;;
19907;SDS011;10116;53.112;7.356;2023-10-09T02:34:53;1.50;;;1.40;;
19907;SDS011;10116;53.112;7.356;2023-10-09T02:37:20;1.67;;;1.13;;
19907;SDS011;10116;53.112;7.356;2023-10-09T02:39:50;1.30;;;1.17;;
19907;SDS011;10116;53.112;7.356;2023-10-09T02:42:17;0.93;;;0.93;;
19907;SDS011;10116;53.112;7.356;2023-10-09T02:44:51;1.10;;;1.03;;
19907;SDS011;10116;53.112;7.356;2023-10-09T02:47:17;1.40;;;1.30;;
19907;SDS011;10116;53.112;7.356;2023-10-09T02:49:50;1.60;;;1.30;;
19907;SDS011;10116;53.112;7.356;2023-10-09T02:52:17;1.77;;;1.50;;
19907;SDS011;10116;53.112;7.356;2023-10-09T02:54:51;1.57;;;1.30;;
19907;SDS011;10116;53.112;7.356;2023-10-09T02:57:25;1.37;;;1.37;;
19907;SDS011;10116;53.112;7.356;2023-10-09T02:59:53;1.53;;;1.47;;
19907;SDS011;10116;53.112;7.356;2023-10-09T03:02:19;1.50;;;1.40;;
19907;SDS011;10116;53.112;7.356;2023-10-09T03:04:45;1.70;;;1.60;;
19907;SDS011;10116;53.112;7.356;2023-10-09T03:07:10;2.30;;;1.67;;
19907;SDS011;10116;53.112;7.356;2023-10-09T03:09:38;2.43;;;2.00;;
19907;SDS011;10116;53.112;7.356;2023-10-09T03:12:06;2.43;;;2.23;;
19907;SDS011;10116;53.112;7.356;2023-10-09T03:14:36;2.17;;;1.43;;
19907;SDS011;10116;53.112;7.356;2023-10-09T03:17:06;2.07;;;1.70;;
19907;SDS011;10116;53.112;7.356;2023-10-09T03:19:36;2.10;;;1.90;;
19907;SDS011;10116;53.112;7.356;2023-10-09T03:22:03;1.90;;;1.80;;
19907;SDS011;10116;53.112;7.356;2023-10-09T03:24:35;1.83;;;1.73;;
19907;SDS011;10116;53.112;7.356;2023-10-09T03:27:02;2.03;;;1.90;;
19907;SDS011;10116;53.112;7.356;2023-10-09T03:29:28;2.60;;;2.40;;
19907;SDS011;10116;53.112;7.356;2023-10-09T03:31:54;6.40;;;2.20;;
19907;SDS011;10116;53.112;7.356;2023-10-09T03:34:21;2.50;;;2.20;;
19907;SDS011;10116;53.112;7.356;2023-10-09T03:36:47;2.07;;;1.97;;
19907;SDS011;10116;53.112;7.356;2023-10-09T03:39:13;2.50;;;2.30;;
19907;SDS011;10116;53.112;7.356;2023-10-09T03:41:58;2.30;;;2.13;;
19907;SDS011;10116;53.112;7.356;2023-10-09T03:44:27;2.33;;;2.13;;
19907;SDS011;10116;53.112;7.356;2023-10-09T03:46:55;1.90;;;1.80;;
19907;SDS011;10116;53.112;7.356;2023-10-09T03:49:21;2.80;;;2.10;;
19907;SDS011;10116;53.112;7.356;2023-10-09T03:51:51;2.40;;;2.20;;
19907;SDS011;10116;53.112;7.356;2023-10-09T03:54:17;2.30;;;2.00;;
19907;SDS011;10116;53.112;7.356;2023-10-09T03:56:47;2.87;;;2.67;;
19907;SDS011;10116;53.112;7.356;2023-10-09T03:59:20;2.87;;;2.67;;
19907;SDS011;10116;53.112;7.356;2023-10-09T04:01:46;2.60;;;2.37;;
19907;SDS011;10116;53.112;7.356;2023-10-09T04:04:13;2.50;;;2.30;;
19907;SDS011;10116;53.112;7.356;2023-10-09T04:06:39;2.73;;;2.47;;
19907;SDS011;10116;53.112;7.356;2023-10-09T04:09:10;3.23;;;1.87;;
19907;SDS011;10116;53.112;7.356;2023-10-09T04:11:52;2.83;;;2.47;;
19907;SDS011;10116;53.112;7.356;2023-10-09T04:14:34;3.17;;;2.30;;
19907;SDS011;10116;53.112;7.356;2023-10-09T04:17:00;3.00;;;2.70;;
19907;SDS011;10116;53.112;7.356;2023-10-09T04:19:49;2.80;;;2.60;;
19907;SDS011;10116;53.112;7.356;2023-10-09T04:22:34;2.50;;;2.30;;
19907;SDS011;10116;53.112;7.356;2023-10-09T04:25:05;2.60;;;2.40;;
19907;SDS011;10116;53.112;7.356;2023-10-09T04:27:40;2.27;;;2.17;;
19907;SDS011;10116;53.112;7.356;2023-10-09T04:30:06;2.90;;;2.70;;
19907;SDS011;10116;53.112;7.356;2023-10-09T04:32:33;2.77;;;2.57;;
19907;SDS011;10116;53.112;7.356;2023-10-09T04:35:00;2.93;;;2.13;;
19907;SDS011;10116;53.112;7.356;2023-10-09T04:37:44;1.83;;;1.73;;
19907;SDS011;10116;53.112;7.356;2023-10-09T04:40:17;2.97;;;2.10;;
19907;SDS011;10116;53.112;7.356;2023-10-09T04:43:12;3.03;;;2.57;;
19907;SDS011;10116;53.112;7.356;2023-10-09T04:45:45;2.40;;;2.30;;
19907;SDS011;10116;53.112;7.356;2023-10-09T04:48:30;3.20;;;2.50;;
19907;SDS011;10116;53.112;7.356;2023-10-09T04:51:02;3.20;;;2.60;;
19907;SDS011;10116;53.112;7.356;2023-10-09T04:53:47;3.83;;;2.70;;
19907;SDS011;10116;53.112;7.356;2023-10-09T04:56:25;4.13;;;2.60;;
19907;SDS011;10116;53.112;7.356;2023-10-09T04:58:56;3.30;;;3.00;;
19907;SDS011;10116;53.112;7.356;2023-10-09T05:01:28;4.20;;;3.53;;
19907;SDS011;10116;53.112;7.356;2023-10-09T05:04:02;4.20;;;3.27;;
19907;SDS011;10116;53.112;7.356;2023-10-09T05:06:29;3.20;;;2.90;;
19907;SDS011;10116;53.112;7.356;2023-10-09T05:09:07;5.40;;;3.83;;
19907;SDS011;10116;53.112;7.356;2023-10-09T05:11:34;5.23;;;3.37;;
19907;SDS011;10116;53.112;7.356;2023-10-09T05:14:19;4.47;;;3.70;;
19907;SDS011;10116;53.112;7.356;2023-10-09T05:17:03;4.83;;;3.40;;
19907;SDS011;10116;53.112;7.356;2023-10-09T05:19:34;4.20;;;3.80;;
19907;SDS011;10116;53.112;7.356;2023-10-09T05:22:20;6.13;;;4.43;;
19907;SDS011;10116;53.112;7.356;2023-10-09T05:25:01;11.53;;;4.73;;
19907;SDS011;10116;53.112;7.356;2023-10-09T05:27:27;4.27;;;3.83;;
19907;SDS011;10116;53.112;7.356;2023-10-09T05:30:15;10.77;;;7.33;;
19907;SDS011;10116;53.112;7.356;2023-10-09T05:32:56;10.20;;;7.10;;
19907;SDS011;10116;53.112;7.356;2023-10-09T05:35:44;7.80;;;6.83;;
19907;SDS011;10116;53.112;7.356;2023-10-09T05:38:30;9.97;;;7.57;;
19907;SDS011;10116;53.112;7.356;2023-10-09T05:40:55;10.93;;;7.70;;
19907;SDS011;10116;53.112;7.356;2023-10-09T05:43:41;9.70;;;7.60;;
19907;SDS011;10116;53.112;7.356;2023-10-09T05:46:26;10.30;;;7.83;;
19907;SDS011;10116;53.112;7.356;2023-10-09T05:49:00;11.87;;;8.57;;
19907;SDS011;10116;53.112;7.356;2023-10-09T05:51:44;11.37;;;8.20;;
19907;SDS011;10116;53.112;7.356;2023-10-09T05:54:18;11.10;;;7.73;;
19907;SDS011;10116;53.112;7.356;2023-10-09T05:57:10;10.53;;;7.17;;
19907;SDS011;10116;53.112;7.356;2023-10-09T05:59:54;9.53;;;7.60;;
19907;SDS011;10116;53.112;7.356;2023-10-09T06:02:58;11.80;;;7.83;;
19907;SDS011;10116;53.112;7.356;2023-10-09T06:05:42;10.07;;;6.93;;
19907;SDS011;10116;53.112;7.356;2023-10-09T06:08:29;10.47;;;6.20;;
19907;SDS011;10116;53.112;7.356;2023-10-09T06:11:08;9.20;;;6.20;;
19907;SDS011;10116;53.112;7.356;2023-10-09T06:13:53;7.93;;;6.30;;
19907;SDS011;10116;53.112;7.356;2023-10-09T06:16:29;9.27;;;6.00;;
19907;SDS011;10116;53.112;7.356;2023-10-09T06:19:09;6.93;;;5.80;;
19907;SDS011;10116;53.112;7.356;2023-10-09T06:21:59;7.67;;;5.60;;
19907;SDS011;10116;53.112;7.356;2023-10-09T06:24:37;6.97;;;5.60;;
19907;SDS011;10116;53.112;7.356;2023-10-09T06:27:20;9.80;;;5.80;;
19907;SDS011;10116;53.112;7.356;2023-10-09T06:30:08;7.53;;;5.60;;
19907;SDS011;10116;53.112;7.356;2023-10-09T06:32:37;10.03;;;5.83;;
19907;SDS011;10116;53.112;7.356;2023-10-09T06:35:04;5.63;;;5.03;;
19907;SDS011;10116;53.112;7.356;2023-10-09T06:38:09;7.87;;;5.20;;
19907;SDS011;10116;53.112;7.356;2023-10-09T06:40:47;5.70;;;5.20;;
19907;SDS011;10116;53.112;7.356;2023-10-09T06:43:17;7.57;;;5.30;;
19907;SDS011;10116;53.112;7.356;2023-10-09T06:45:47;8.50;;;4.47;;
19907;SDS011;10116;53.112;7.356;2023-10-09T06:48:22;5.40;;;4.90;;
19907;SDS011;10116;53.112;7.356;2023-10-09T06:51:09;6.73;;;4.87;;
19907;SDS011;10116;53.112;7.356;2023-10-09T06:53:54;4.73;;;4.27;;
19907;SDS011;10116;53.112;7.356;2023-10-09T06:58:57;6.73;;;4.60;;
19907;SDS011;10116;53.112;7.356;2023-10-09T07:01:46;5.77;;;5.17;;
19907;SDS011;10116;53.112;7.356;2023-10-09T07:04:33;6.27;;;4.80;;
19907;SDS011;10116;53.112;7.356;2023-10-09T07:06:59;4.60;;;4.20;;
19907;SDS011;10116;53.112;7.356;2023-10-09T07:09:32;5.77;;;4.80;;
19907;SDS011;10116;53.112;7.356;2023-10-09T07:12:08;5.53;;;4.37;;
19907;SDS011;10116;53.112;7.356;2023-10-09T07:14:51;8.00;;;4.57;;
19907;SDS011;10116;53.112;7.356;2023-10-09T07:17:31;4.20;;;3.80;;
19907;SDS011;10116;53.112;7.356;2023-10-09T07:20:00;5.00;;;4.50;;
19907;SDS011;10116;53.112;7.356;2023-10-09T07:22:39;4.77;;;4.30;;
19907;SDS011;10116;53.112;7.356;2023-10-09T07:25:17;4.17;;;3.80;;
19907;SDS011;10116;53.112;7.356;2023-10-09T07:28:05;4.60;;;4.10;;
19907;SDS011;10116;53.112;7.356;2023-10-09T07:30:44;5.30;;;3.77;;
19907;SDS011;10116;53.112;7.356;2023-10-09T07:33:13;6.00;;;3.90;;
19907;SDS011;10116;53.112;7.356;2023-10-09T07:35:46;4.90;;;4.07;;
19907;SDS011;10116;53.112;7.356;2023-10-09T07:38:22;5.17;;;3.90;;
19907;SDS011;10116;53.112;7.356;2023-10-09T07:40:53;4.17;;;3.77;;
19907;SDS011;10116;53.112;7.356;2023-10-09T07:43:33;5.33;;;3.97;;
19907;SDS011;10116;53.112;7.356;2023-10-09T07:46:18;4.33;;;4.03;;
19907;SDS011;10116;53.112;7.356;2023-10-09T07:49:17;4.50;;;4.10;;
19907;SDS011;10116;53.112;7.356;2023-10-09T07:51:50;4.77;;;4.27;;
19907;SDS011;10116;53.112;7.356;2023-10-09T07:54:18;4.50;;;4.07;;
19907;SDS011;10116;53.112;7.356;2023-10-09T07:56:57;6.33;;;4.10;;
19907;SDS011;10116;53.112;7.356;2023-10-09T07:59:34;5.00;;;4.03;;
19907;SDS011;10116;53.112;7.356;2023-10-09T08:02:19;4.30;;;3.93;;
19907;SDS011;10116;53.112;7.356;2023-10-09T08:04:56;5.93;;;3.90;;
19907;SDS011;10116;53.112;7.356;2023-10-09T08:07:43;6.00;;;3.97;;
19907;SDS011;10116;53.112;7.356;2023-10-09T08:10:20;4.83;;;3.37;;
19907;SDS011;10116;53.112;7.356;2023-10-09T08:12:45;6.97;;;4.60;;
19907;SDS011;10116;53.112;7.356;2023-10-09T08:15:14;4.23;;;3.50;;
19907;SDS011;10116;53.112;7.356;2023-10-09T08:17:56;4.47;;;4.07;;
19907;SDS011;10116;53.112;7.356;2023-10-09T08:20:43;4.43;;;4.03;;
19907;SDS011;10116;53.112;7.356;2023-10-09T08:23:27;6.10;;;4.40;;
19907;SDS011;10116;53.112;7.356;2023-10-09T08:26:13;4.80;;;4.00;;
19907;SDS011;10116;53.112;7.356;2023-10-09T08:28:40;4.90;;;4.03;;
19907;SDS011;10116;53.112;7.356;2023-10-09T08:31:11;5.10;;;4.60;;
19907;SDS011;10116;53.112;7.356;2023-10-09T08:33:56;4.70;;;4.20;;
19907;SDS011;10116;53.112;7.356;2023-10-09T08:36:26;4.77;;;4.37;;
19907;SDS011;10116;53.112;7.356;2023-10-09T08:39:04;5.00;;;3.43;;
19907;SDS011;10116;53.112;7.356;2023-10-09T08:41:50;5.23;;;4.13;;
19907;SDS011;10116;53.112;7.356;2023-10-09T08:44:17;4.07;;;3.77;;
19907;SDS011;10116;53.112;7.356;2023-10-09T08:46:47;5.07;;;4.27;;
19907;SDS011;10116;53.112;7.356;2023-10-09T08:49:15;4.67;;;4.17;;
19907;SDS011;10116;53.112;7.356;2023-10-09T08:51:42;5.70;;;4.47;;
19907;SDS011;10116;53.112;7.356;2023-10-09T08:54:08;5.97;;;4.20;;
19907;SDS011;10116;53.112;7.356;2023-10-09T08:56:39;4.53;;;3.53;;
19907;SDS011;10116;53.112;7.356;2023-10-09T08:59:14;6.03;;;4.43;;
19907;SDS011;10116;53.112;7.356;2023-10-09T09:01:47;4.70;;;4.20;;
19907;SDS011;10116;53.112;7.356;2023-10-09T09:07:06;4.87;;;4.10;;
19907;SDS011;10116;53.112;7.356;2023-10-09T09:09:54;4.63;;;3.80;;
19907;SDS011;10116;53.112;7.356;2023-10-09T09:12:42;4.47;;;4.07;;
19907;SDS011;10116;53.112;7.356;2023-10-09T09:15:15;4.47;;;4.03;;
19907;SDS011;10116;53.112;7.356;2023-10-09T09:17:45;4.87;;;4.30;;
19907;SDS011;10116;53.112;7.356;2023-10-09T09:20:24;4.43;;;4.03;;
19907;SDS011;10116;53.112;7.356;2023-10-09T09:23:06;4.03;;;3.63;;
19907;SDS011;10116;53.112;7.356;2023-10-09T09:25:46;6.63;;;4.37;;
19907;SDS011;10116;53.112;7.356;2023-10-09T09:28:23;5.60;;;4.10;;
19907;SDS011;10116;53.112;7.356;2023-10-09T09:30:51;5.70;;;3.93;;
19907;SDS011;10116;53.112;7.356;2023-10-09T09:38:28;5.27;;;4.13;;
19907;SDS011;10116;53.112;7.356;2023-10-09T09:41:06;6.30;;;4.10;;
19907;SDS011;10116;53.112;7.356;2023-10-09T09:43:34;4.93;;;4.20;;
19907;SDS011;10116;53.112;7.356;2023-10-09T09:46:05;4.70;;;4.00;;
19907;SDS011;10116;53.112;7.356;2023-10-09T09:48:42;6.77;;;4.57;;
19907;SDS011;10116;53.112;7.356;2023-10-09T09:51:13;4.57;;;4.17;;
19907;SDS011;10116;53.112;7.356;2023-10-09T09:53:39;7.63;;;3.80;;
19907;SDS011;10116;53.112;7.356;2023-10-09T09:56:05;4.37;;;3.80;;
19907;SDS011;10116;53.112;7.356;2023-10-09T09:58:32;4.63;;;4.23;;
19907;SDS011;10116;53.112;7.356;2023-10-09T10:01:09;4.20;;;3.80;;
19907;SDS011;10116;53.112;7.356;2023-10-09T10:03:51;6.23;;;4.57;;
19907;SDS011;10116;53.112;7.356;2023-10-09T10:06:25;4.57;;;4.00;;
19907;SDS011;10116;53.112;7.356;2023-10-09T10:08:53;4.30;;;3.90;;
19907;SDS011;10116;53.112;7.356;2023-10-09T10:14:10;5.00;;;4.10;;
19907;SDS011;10116;53.112;7.356;2023-10-09T10:17:22;4.10;;;3.70;;
19907;SDS011;10116;53.112;7.356;2023-10-09T10:22:25;10.50;;;4.10;;
19907;SDS011;10116;53.112;7.356;2023-10-09T10:24:58;4.90;;;4.13;;
19907;SDS011;10116;53.112;7.356;2023-10-09T10:27:27;4.20;;;3.87;;
19907;SDS011;10116;53.112;7.356;2023-10-09T10:35:16;4.80;;;3.80;;
19907;SDS011;10116;53.112;7.356;2023-10-09T10:37:50;5.60;;;4.30;;
19907;SDS011;10116;53.112;7.356;2023-10-09T10:40:26;4.67;;;3.70;;
19907;SDS011;10116;53.112;7.356;2023-10-09T10:43:16;5.80;;;4.00;;
19907;SDS011;10116;53.112;7.356;2023-10-09T10:46:08;4.60;;;3.70;;
19907;SDS011;10116;53.112;7.356;2023-10-09T10:48:40;5.80;;;4.07;;
19907;SDS011;10116;53.112;7.356;2023-10-09T10:51:12;4.53;;;4.13;;
19907;SDS011;10116;53.112;7.356;2023-10-09T10:53:52;6.07;;;3.60;;
19907;SDS011;10116;53.112;7.356;2023-10-09T10:56:24;4.40;;;3.87;;
19907;SDS011;10116;53.112;7.356;2023-10-09T10:59:00;3.93;;;3.63;;
19907;SDS011;10116;53.112;7.356;2023-10-09T11:01:34;5.00;;;3.80;;
19907;SDS011;10116;53.112;7.356;2023-10-09T11:04:23;4.67;;;3.67;;
19907;SDS011;10116;53.112;7.356;2023-10-09T11:07:03;5.10;;;3.87;;
19907;SDS011;10116;53.112;7.356;2023-10-09T11:12:31;6.50;;;4.37;;
19907;SDS011;10116;53.112;7.356;2023-10-09T11:15:05;4.20;;;3.80;;
19907;SDS011;10116;53.112;7.356;2023-10-09T11:17:33;5.40;;;3.40;;
19907;SDS011;10116;53.112;7.356;2023-10-09T11:20:01;10.03;;;3.90;;
19907;SDS011;10116;53.112;7.356;2023-10-09T11:22:49;5.40;;;3.53;;
19907;SDS011;10116;53.112;7.356;2023-10-09T11:25:39;4.43;;;3.50;;
19907;SDS011;10116;53.112;7.356;2023-10-09T11:28:22;9.73;;;3.87;;
19907;SDS011;10116;53.112;7.356;2023-10-09T11:31:08;3.90;;;2.97;;
19907;SDS011;10116;53.112;7.356;2023-10-09T11:33:47;3.30;;;3.00;;
19907;SDS011;10116;53.112;7.356;2023-10-09T11:36:16;5.33;;;3.40;;
19907;SDS011;10116;53.112;7.356;2023-10-09T11:38:56;4.13;;;2.97;;
19907;SDS011;10116;53.112;7.356;2023-10-09T11:41:39;4.13;;;3.10;;
19907;SDS011;10116;53.112;7.356;2023-10-09T11:44:09;5.43;;;3.73;;
19907;SDS011;10116;53.112;7.356;2023-10-09T11:46:58;4.23;;;3.30;;
19907;SDS011;10116;53.112;7.356;2023-10-09T11:49:57;4.50;;;3.00;;
19907;SDS011;10116;53.112;7.356;2023-10-09T11:52:29;6.03;;;3.37;;
19907;SDS011;10116;53.112;7.356;2023-10-09T11:54:56;3.87;;;2.83;;
19907;SDS011;10116;53.112;7.356;2023-10-09T11:57:25;3.33;;;3.07;;
19907;SDS011;10116;53.112;7.356;2023-10-09T11:59:58;6.37;;;2.60;;
19907;SDS011;10116;53.112;7.356;2023-10-09T12:02:25;5.80;;;3.20;;
19907;SDS011;10116;53.112;7.356;2023-10-09T12:04:51;3.50;;;3.10;;
19907;SDS011;10116;53.112;7.356;2023-10-09T12:07:20;3.63;;;3.30;;
19907;SDS011;10116;53.112;7.356;2023-10-09T12:09:47;3.00;;;2.80;;
19907;SDS011;10116;53.112;7.356;2023-10-09T12:12:13;3.20;;;2.90;;
19907;SDS011;10116;53.112;7.356;2023-10-09T12:14:39;4.13;;;2.50;;
19907;SDS011;10116;53.112;7.356;2023-10-09T12:17:05;4.77;;;2.60;;
19907;SDS011;10116;53.112;7.356;2023-10-09T12:19:36;2.80;;;2.60;;
19907;SDS011;10116;53.112;7.356;2023-10-09T12:22:04;2.87;;;2.57;;
19907;SDS011;10116;53.112;7.356;2023-10-09T12:24:41;4.37;;;3.03;;
19907;SDS011;10116;53.112;7.356;2023-10-09T12:27:10;2.77;;;2.57;;
19907;SDS011;10116;53.112;7.356;2023-10-09T12:29:36;2.83;;;2.40;;
19907;SDS011;10116;53.112;7.356;2023-10-09T12:32:03;2.30;;;2.10;;
19907;SDS011;10116;53.112;7.356;2023-10-09T12:34:31;2.00;;;1.90;;
19907;SDS011;10116;53.112;7.356;2023-10-09T12:36:57;2.50;;;2.30;;
19907;SDS011;10116;53.112;7.356;2023-10-09T12:39:29;2.10;;;2.00;;
19907;SDS011;10116;53.112;7.356;2023-10-09T12:42:05;2.50;;;2.30;;
19907;SDS011;10116;53.112;7.356;2023-10-09T12:44:37;1.90;;;1.80;;
19907;SDS011;10116;53.112;7.356;2023-10-09T12:47:06;2.40;;;2.00;;
19907;SDS011;10116;53.112;7.356;2023-10-09T12:49:32;2.10;;;1.90;;
19907;SDS011;10116;53.112;7.356;2023-10-09T12:51:58;2.23;;;1.90;;
19907;SDS011;10116;53.112;7.356;2023-10-09T12:54:26;2.10;;;1.77;;
19907;SDS011;10116;53.112;7.356;2023-10-09T12:56:53;2.80;;;2.43;;
19907;SDS011;10116;53.112;7.356;2023-10-09T12:59:19;2.10;;;2.00;;
19907;SDS011;10116;53.112;7.356;2023-10-09T13:01:46;1.90;;;1.80;;
19907;SDS011;10116;53.112;7.356;2023-10-09T13:04:17;2.33;;;2.03;;
19907;SDS011;10116;53.112;7.356;2023-10-09T13:06:47;1.77;;;1.67;;
19907;SDS011;10116;53.112;7.356;2023-10-09T13:09:16;2.10;;;1.90;;
19907;SDS011;10116;53.112;7.356;2023-10-09T13:11:58;2.10;;;1.90;;
19907;SDS011;10116;53.112;7.356;2023-10-09T13:14:25;2.30;;;2.10;;
19907;SDS011;10116;53.112;7.356;2023-10-09T13:16:51;4.50;;;2.40;;
19907;SDS011;10116;53.112;7.356;2023-10-09T13:19:18;2.00;;;1.90;;
19907;SDS011;10116;53.112;7.356;2023-10-09T13:21:44;1.97;;;1.80;;
19907;SDS011;10116;53.112;7.356;2023-10-09T13:24:10;1.97;;;1.87;;
19907;SDS011;10116;53.112;7.356;2023-10-09T13:26:41;2.83;;;2.10;;
19907;SDS011;10116;53.112;7.356;2023-10-09T13:29:10;2.57;;;2.03;;
19907;SDS011;10116;53.112;7.356;2023-10-09T13:31:36;3.40;;;2.00;;
19907;SDS011;10116;53.112;7.356;2023-10-09T13:34:05;1.77;;;1.67;;
19907;SDS011;10116;53.112;7.356;2023-10-09T13:36:34;5.80;;;2.70;;
19907;SDS011;10116;53.112;7.356;2023-10-09T13:39:06;2.30;;;2.00;;
19907;SDS011;10116;53.112;7.356;2023-10-09T13:41:53;3.20;;;1.83;;
19907;SDS011;10116;53.112;7.356;2023-10-09T13:44:24;2.00;;;1.90;;
19907;SDS011;10116;53.112;7.356;2023-10-09T13:46:52;2.80;;;2.20;;
19907;SDS011;10116;53.112;7.356;2023-10-09T13:49:19;2.13;;;1.93;;
19907;SDS011;10116;53.112;7.356;2023-10-09T13:51:47;3.93;;;2.00;;
19907;SDS011;10116;53.112;7.356;2023-10-09T13:54:15;5.47;;;2.40;;
19907;SDS011;10116;53.112;7.356;2023-10-09T13:56:53;2.43;;;1.67;;
19907;SDS011;10116;53.112;7.356;2023-10-09T13:59:22;2.03;;;1.93;;
19907;SDS011;10116;53.112;7.356;2023-10-09T14:01:54;3.10;;;2.00;;
19907;SDS011;10116;53.112;7.356;2023-10-09T14:04:20;2.30;;;1.80;;
19907;SDS011;10116;53.112;7.356;2023-10-09T14:06:48;2.70;;;2.00;;
19907;SDS011;10116;53.112;7.356;2023-10-09T14:09:14;5.13;;;2.50;;
19907;SDS011;10116;53.112;7.356;2023-10-09T14:12:18;1.97;;;1.80;;
19907;SDS011;10116;53.112;7.356;2023-10-09T14:14:46;2.83;;;1.83;;
19907;SDS011;10116;53.112;7.356;2023-10-09T14:17:16;2.90;;;2.10;;
19907;SDS011;10116;53.112;7.356;2023-10-09T14:19:53;2.50;;;1.90;;
19907;SDS011;10116;53.112;7.356;2023-10-09T14:22:22;2.03;;;1.70;;
19907;SDS011;10116;53.112;7.356;2023-10-09T14:24:55;5.30;;;1.83;;
19907;SDS011;10116;53.112;7.356;2023-10-09T14:27:21;1.70;;;1.50;;
19907;SDS011;10116;53.112;7.356;2023-10-09T14:29:52;1.47;;;1.37;;
19907;SDS011;10116;53.112;7.356;2023-10-09T14:32:24;2.90;;;1.97;;
19907;SDS011;10116;53.112;7.356;2023-10-09T14:35:09;2.50;;;1.90;;
19907;SDS011;10116;53.112;7.356;2023-10-09T14:37:39;3.57;;;2.00;;
19907;SDS011;10116;53.112;7.356;2023-10-09T14:40:05;3.43;;;1.70;;
19907;SDS011;10116;53.112;7.356;2023-10-09T14:42:38;1.97;;;1.73;;
19907;SDS011;10116;53.112;7.356;2023-10-09T14:45:10;2.17;;;1.50;;
19907;SDS011;10116;53.112;7.356;2023-10-09T14:47:41;1.97;;;1.87;;
19907;SDS011;10116;53.112;7.356;2023-10-09T14:50:13;2.27;;;1.60;;
19907;SDS011;10116;53.112;7.356;2023-10-09T14:52:39;3.67;;;1.90;;
19907;SDS011;10116;53.112;7.356;2023-10-09T14:55:05;1.63;;;1.53;;
19907;SDS011;10116;53.112;7.356;2023-10-09T14:57:32;1.90;;;1.80;;
19907;SDS011;10116;53.112;7.356;2023-10-09T15:00:00;2.87;;;1.90;;
19907;SDS011;10116;53.112;7.356;2023-10-09T15:02:32;4.63;;;2.03;;
19907;SDS011;10116;53.112;7.356;2023-10-09T15:04:58;1.90;;;1.80;;
19907;SDS011;10116;53.112;7.356;2023-10-09T15:07:24;3.83;;;2.13;;
19907;SDS011;10116;53.112;7.356;2023-10-09T15:09:49;1.97;;;1.77;;
19907;SDS011;10116;53.112;7.356;2023-10-09T15:12:16;3.30;;;2.27;;
19907;SDS011;10116;53.112;7.356;2023-10-09T15:14:42;1.80;;;1.70;;
19907;SDS011;10116;53.112;7.356;2023-10-09T15:17:09;4.00;;;2.00;;
19907;SDS011;10116;53.112;7.356;2023-10-09T15:19:36;3.00;;;1.73;;
19907;SDS011;10116;53.112;7.356;2023-10-09T15:22:02;2.33;;;1.87;;
19907;SDS011;10116;53.112;7.356;2023-10-09T15:24:33;2.53;;;2.13;;
19907;SDS011;10116;53.112;7.356;2023-10-09T15:26:59;3.27;;;2.00;;
19907;SDS011;10116;53.112;7.356;2023-10-09T15:29:25;2.30;;;1.63;;
19907;SDS011;10116;53.112;7.356;2023-10-09T15:31:59;5.53;;;3.30;;
19907;SDS011;10116;53.112;7.356;2023-10-09T15:34:40;6.53;;;2.20;;
19907;SDS011;10116;53.112;7.356;2023-10-09T15:37:06;7.77;;;2.97;;
19907;SDS011;10116;53.112;7.356;2023-10-09T15:39:35;3.90;;;2.50;;
19907;SDS011;10116;53.112;7.356;2023-10-09T15:42:01;3.37;;;2.40;;
19907;SDS011;10116;53.112;7.356;2023-10-09T15:44:38;6.73;;;2.70;;
19907;SDS011;10116;53.112;7.356;2023-10-09T15:47:04;3.93;;;2.10;;
19907;SDS011;10116;53.112;7.356;2023-10-09T15:49:33;7.73;;;2.90;;
19907;SDS011;10116;53.112;7.356;2023-10-09T15:52:06;3.17;;;2.50;;